Time;durP1;ratioP1;P1;durP2;ratioP2;P2;SDS_P1;SDS_P2;PMS_P1;PMS_P2;Temp;Humidity;BMP_temperature;BMP_pressure;BME280_temperature;BME280_humidity;BME280_pressure;Samples;Min_cycle;Max_cycle;Signal;HPM_P1;HPM_P2
2022/08/22 00:00:18;;;;;;;9.90;3.25;;;;;;;21.53;30.97;100091.44;4997001;28;20054;-74
2022/08/22 00:02:44;;;;;;;7.72;3.63;;;;;;;21.54;31.12;100098.72;5014692;28;20050;-68
2022/08/22 00:06:10;;;;;;;10.35;4.00;;;;;;;21.52;31.14;100092.63;4996934;28;20064;-69
2022/08/22 00:08:45;;;;;;;10.98;4.05;;;;;;;21.49;31.41;100096.25;5013570;28;20105;-68
2022/08/22 00:11:15;;;;;;;16.10;7.72;;;;;;;21.51;31.25;100100.34;5015273;28;20077;-69
2022/08/22 00:13:42;;;;;;;;;;;;;;;21.38;31.37;100101.03;5014846;28;20454;-69
2022/08/22 00:16:16;;;;;;;12.95;4.43;;;;;;;;;;5014530;28;19948;-69
2022/08/22 00:19:10;;;;;;;17.23;3.78;;;;;;;21.41;31.58;100088.91;5014087;28;20135;-68
2022/08/22 00:21:50;;;;;;;25.70;5.45;;;;;;;21.40;31.55;100090.09;5014291;28;20472;-69
2022/08/22 00:24:26;;;;;;;11.77;4.33;;;;;;;21.41;31.72;100094.59;5014280;28;20592;-68
2022/08/22 00:27:22;;;;;;;13.75;5.63;;;;;;;21.37;31.62;100094.53;5014053;28;20054;-68
2022/08/22 00:30:02;;;;;;;17.80;5.18;;;;;;;21.38;31.67;100106.69;5014180;28;20473;-69
2022/08/22 00:32:37;;;;;;;13.30;4.82;;;;;;;21.37;31.70;100102.22;5014122;28;20100;-68
2022/08/22 00:35:19;;;;;;;14.80;6.65;;;;;;;21.35;31.64;100094.13;5013916;28;20096;-69
2022/08/22 00:37:55;;;;;;;10.05;5.78;;;;;;;21.33;31.91;100099.38;5014510;28;20054;-69
2022/08/22 00:41:04;;;;;;;12.35;5.63;;;;;;;21.28;31.89;100096.06;5013707;28;20145;-69
2022/08/22 00:44:03;;;;;;;16.13;7.32;;;;;;;21.20;31.96;100097.22;5013877;28;20081;-68
2022/08/22 00:46:55;;;;;;;23.00;6.30;;;;;;;21.22;32.06;100098.47;4994403;28;20540;-69
2022/08/22 00:49:55;;;;;;;9.95;5.72;;;;;;;21.22;32.06;100097.63;4994225;28;20058;-70
2022/08/22 00:52:25;;;;;;;18.98;5.47;;;;;;;21.24;32.07;100107.38;5004300;28;20081;-69
2022/08/22 00:55:07;;;;;;;10.95;5.53;;;;;;;21.24;31.96;100100.91;5028388;28;20509;-68
2022/08/22 00:57:53;;;;;;;13.23;6.07;;;;;;;21.27;32.06;100108.59;4996267;28;20465;-69
2022/08/22 01:00:28;;;;;;;11.75;5.90;;;;;;;21.30;32.00;100110.66;4996893;28;20108;-68
2022/08/22 01:03:30;;;;;;;13.50;5.93;;;;;;;21.31;31.91;100117.94;5013527;28;20421;-69
2022/08/22 01:06:12;;;;;;;13.68;6.82;;;;;;;21.30;32.21;100116.31;5013601;28;20054;-69
2022/08/22 01:09:30;;;;;;;15.63;7.45;;;;;;;21.33;32.12;100132.50;5013261;28;20058;-69
2022/08/22 01:12:28;;;;;;;16.27;6.30;;;;;;;21.32;32.13;100126.03;4943880;28;20088;-69
2022/08/22 01:15:04;;;;;;;21.38;6.30;;;;;;;21.30;32.03;100121.97;4995717;28;20058;-69
2022/08/22 01:17:46;;;;;;;15.10;5.68;;;;;;;21.32;32.44;100130.91;5013288;28;20496;-69
2022/08/22 01:20:43;;;;;;;15.88;5.57;;;;;;;21.31;32.60;100134.91;5012097;28;20058;-69
2022/08/22 01:23:34;;;;;;;18.13;6.68;;;;;;;21.28;32.86;100124.38;5013165;28;20065;-68
2022/08/22 01:26:09;;;;;;;17.17;6.38;;;;;;;21.27;32.97;100134.06;5013043;28;20054;-68
2022/08/22 01:29:02;;;;;;;19.20;8.35;;;;;;;21.24;33.26;100123.53;5013145;28;20061;-69
2022/08/22 01:31:55;;;;;;;11.60;5.53;;;;;;;21.18;33.34;100110.94;5013131;28;20072;-69
2022/08/22 01:34:31;;;;;;;15.20;5.07;;;;;;;21.18;33.49;100113.78;5012828;28;20100;-69
2022/08/22 01:37:14;;;;;;;16.23;5.32;;;;;;;21.16;33.53;100127.50;5013038;28;20061;-68
2022/08/22 01:40:12;;;;;;;11.65;4.75;;;;;;;21.09;33.68;100125.44;5013012;28;20168;-68
2022/08/22 01:42:54;;;;;;;10.45;4.60;;;;;;;21.01;33.96;100120.06;5026054;28;20069;-70
2022/08/22 01:45:39;;;;;;;16.42;4.97;;;;;;;20.98;34.28;100120.84;5032697;28;20088;-69
2022/08/22 01:48:15;;;;;;;7.85;4.00;;;;;;;20.96;34.41;100117.59;5032929;28;20080;-69
2022/08/22 01:51:02;;;;;;;15.45;4.70;;;;;;;20.97;34.38;100113.56;5014778;28;20080;-68
2022/08/22 01:53:49;;;;;;;9.80;4.35;;;;;;;20.98;34.25;100115.19;5032153;28;20135;-69
2022/08/22 01:56:21;;;;;;;12.50;4.50;;;;;;;20.94;34.73;100111.47;5015809;28;20468;-68
2022/08/22 01:59:12;;;;;;;9.60;3.72;;;;;;;20.95;34.56;100094.16;4996088;28;20104;-74
2022/08/22 02:02:01;;;;;;;11.35;4.40;;;;;;;20.98;34.73;100092.53;5012443;28;20064;-74
2022/08/22 02:04:40;;;;;;;8.52;4.22;;;;;;;21.02;34.91;100079.28;5012384;28;20056;-75
2022/08/22 02:07:26;;;;;;;17.52;4.78;;;;;;;21.02;34.73;100082.09;5012671;28;20058;-73
2022/08/22 02:10:03;;;;;;;15.80;4.75;;;;;;;21.02;35.00;100082.09;5012904;28;20474;-74
2022/08/22 02:12:40;;;;;;;7.95;4.47;;;;;;;21.04;34.97;100079.69;5012850;28;20060;-76
2022/08/22 02:15:13;;;;;;;15.32;5.03;;;;;;;21.03;34.95;100084.53;4995608;28;20104;-75
2022/08/22 02:18:11;;;;;;;10.23;5.38;;;;;;;20.97;35.39;100120.03;5012494;28;20069;-75
2022/08/22 02:20:46;;;;;;;15.20;6.70;;;;;;;20.90;35.82;100116.28;5012382;28;20065;-75
2022/08/22 02:23:22;;;;;;;12.35;6.97;;;;;;;20.77;36.29;100097.94;5012230;28;20084;-74
2022/08/22 02:26:01;;;;;;;14.95;8.18;;;;;;;20.69;36.43;100099.09;5012533;28;20061;-74
2022/08/22 02:28:37;;;;;;;17.57;7.83;;;;;;;20.59;36.41;100080.81;5012205;28;20096;-73
2022/08/22 02:31:47;;;;;;;20.98;8.63;;;;;;;20.60;36.30;100092.94;5009207;28;20069;-75
2022/08/22 02:34:30;;;;;;;17.52;7.57;;;;;;;20.57;36.60;100099.34;5036027;28;20104;-74
2022/08/22 02:37:05;;;;;;;17.77;8.50;;;;;;;20.57;36.64;100097.31;5036186;28;20057;-69
2022/08/22 02:39:41;;;;;;;17.38;8.68;;;;;;;20.56;36.69;100092.88;5022579;28;20054;-69
2022/08/22 02:42:16;;;;;;;17.10;8.95;;;;;;;20.55;36.60;100096.09;4996357;28;20061;-68
2022/08/22 02:45:25;;;;;;;23.10;10.13;;;;;;;20.56;36.69;100109.84;5005987;28;20058;-68
2022/08/22 02:47:55;;;;;;;22.90;11.73;;;;;;;20.53;36.72;100107.78;5015677;28;20149;-69
2022/08/22 02:50:34;;;;;;;30.98;12.95;;;;;;;20.49;37.02;100108.94;5016496;28;20064;-69
2022/08/22 02:53:15;;;;;;;32.10;14.05;;;;;;;20.45;37.17;100125.03;5015826;28;20108;-69
2022/08/22 02:55:55;;;;;;;35.67;14.20;;;;;;;20.41;37.09;100112.88;5016474;28;20058;-69
2022/08/22 02:58:38;;;;;;;38.97;16.10;;;;;;;20.40;37.31;100111.25;5015844;28;20053;-74
2022/08/22 03:01:14;;;;;;;35.67;18.05;;;;;;;20.43;37.10;100116.13;4998554;28;20485;-74
2022/08/22 03:03:46;;;;;;;48.42;21.92;;;;;;;20.43;36.96;100116.13;5015652;28;20062;-74
2022/08/22 03:06:33;;;;;;;44.85;23.58;;;;;;;20.46;37.18;100118.19;5016040;28;20128;-73
2022/08/22 03:09:15;;;;;;;57.10;25.30;;;;;;;20.43;37.17;100121.78;5015845;28;20120;-75
2022/08/22 03:11:48;;;;;;;45.58;25.83;;;;;;;20.45;36.92;100119.38;5015691;28;20583;-75
2022/08/22 03:14:25;;;;;;;56.42;28.38;;;;;;;20.45;36.94;100119.38;4998037;28;20177;-75
2022/08/22 03:17:04;;;;;;;60.42;29.95;;;;;;;20.44;37.15;100123.41;5015546;28;20058;-74
2022/08/22 03:19:59;;;;;;;51.53;30.07;;;;;;;20.43;37.11;100133.88;5015397;28;20429;-75
2022/08/22 03:22:47;;;;;;;60.00;31.33;;;;;;;20.43;37.21;100121.78;4997892;28;20513;-73
2022/08/22 03:25:35;;;;;;;57.58;33.22;;;;;;;20.42;37.19;100123.78;5015299;28;20090;-74
2022/08/22 03:28:25;;;;;;;71.03;32.60;;;;;;;20.42;37.10;100123.78;5015353;28;20062;-74
2022/08/22 03:31:05;;;;;;;77.78;33.25;;;;;;;20.43;37.13;100121.78;4998333;28;20061;-74
2022/08/22 03:33:32;;;;;;;60.67;32.40;;;;;;;20.43;37.21;100124.63;5015096;28;20050;-76
2022/08/22 03:36:05;;;;;;;66.20;34.60;;;;;;;20.47;37.27;100128.28;5015248;28;20112;-75
2022/08/22 03:38:32;;;;;;;76.53;35.10;;;;;;;20.45;37.05;100125.84;5015079;28;20141;-75
2022/08/22 03:41:05;;;;;;;63.97;33.85;;;;;;;20.45;37.09;100125.84;5015414;28;20140;-74
2022/08/22 03:43:56;;;;;;;68.72;34.53;;;;;;;20.51;37.15;100129.13;5014226;28;20046;-73
2022/08/22 03:46:51;;;;;;;62.30;34.97;;;;;;;20.50;36.91;100128.34;5015323;28;20497;-73
2022/08/22 03:49:37;;;;;;;77.70;37.67;;;;;;;20.49;37.21;100126.69;5014880;28;20053;-73
2022/08/22 03:52:09;;;;;;;67.50;35.17;;;;;;;20.54;37.17;100131.22;5015373;28;20053;-73
2022/08/22 03:54:54;;;;;;;80.82;38.85;;;;;;;20.57;36.96;100130.47;5014933;28;20050;-73
2022/08/22 03:57:56;;;;;;;66.25;35.75;;;;;;;20.58;37.03;100127.25;5014649;28;20525;-72
2022/08/22 04:00:32;;;;;;;69.47;36.67;;;;;;;20.59;36.99;100113.91;4997966;28;20082;-73
2022/08/22 04:03:45;;;;;;;82.00;36.72;;;;;;;20.60;36.82;100122.00;4997649;28;20153;-72
2022/08/22 04:06:44;;;;;;;80.13;38.00;;;;;;;20.60;37.09;100135.34;5015062;28;20069;-72
2022/08/22 04:09:28;;;;;;;70.07;35.70;;;;;;;20.61;37.11;100139.78;5014498;28;20058;-72
2022/08/22 04:12:21;;;;;;;68.97;38.08;;;;;;;20.66;36.87;100143.06;5033931;28;20102;-72
2022/08/22 04:15:06;;;;;;;83.82;38.08;;;;;;;20.71;36.82;100130.59;5034304;28;20057;-74
2022/08/22 04:18:11;;;;;;;66.65;35.85;;;;;;;20.73;36.57;100119.72;5034347;28;20152;-73
2022/08/22 04:21:15;;;;;;;72.15;36.58;;;;;;;20.80;36.59;100131.94;5030202;28;20520;-73
2022/08/22 04:24:17;;;;;;;88.63;36.55;;;;;;;20.82;36.44;100140.03;5020960;28;20096;-73
2022/08/22 04:27:09;;;;;;;63.08;37.15;;;;;;;20.77;36.73;100134.72;5013929;28;20053;-73
2022/08/22 04:29:44;;;;;;;69.15;36.03;;;;;;;20.77;36.63;100131.88;5013927;28;20127;-72
2022/08/22 04:32:25;;;;;;;62.72;33.90;;;;;;;20.80;36.58;100131.13;5014340;28;20104;-73
2022/08/22 04:35:06;;;;;;;58.67;34.65;;;;;;;20.84;36.52;100132.78;5014170;28;20054;-73
2022/08/22 04:38:06;;;;;;;71.03;37.20;;;;;;;20.96;36.32;100140.22;5013561;28;20531;-73
2022/08/22 04:41:20;;;;;;;65.57;39.28;;;;;;;20.96;36.34;100141.03;5013641;28;20184;-74
2022/08/22 04:43:58;;;;;;;66.82;36.40;;;;;;;21.03;36.43;100143.13;4978022;28;20046;-72
2022/08/22 04:46:54;;;;;;;66.07;37.03;;;;;;;21.12;36.18;100135.97;5013763;28;20102;-72
2022/08/22 04:49:36;;;;;;;70.55;37.53;;;;;;;21.21;36.17;100132.81;5013664;28;20412;-71
2022/08/22 04:52:21;;;;;;;63.20;34.35;;;;;;;21.20;36.10;100131.97;5013620;28;20073;-72
2022/08/22 04:54:58;;;;;;;75.38;37.30;;;;;;;21.16;36.27;100133.16;5013391;28;20469;-72
2022/08/22 04:58:03;;;;;;;69.60;36.17;;;;;;;21.16;36.32;100133.97;5013415;28;20104;-73
2022/08/22 05:00:53;;;;;;;72.00;35.88;;;;;;;21.22;36.28;100137.25;4914871;29;20603;-73
2022/08/22 05:03:25;;;;;;;64.05;35.17;;;;;;;21.34;36.12;100134.97;4898711;29;20064;-73
2022/08/22 05:05:54;;;;;;;71.55;39.53;;;;;;;21.52;35.92;100127.44;4914833;29;20095;-72
2022/08/22 05:08:25;;;;;;;67.25;36.08;;;;;;;21.65;35.70;100116.63;4914836;29;20103;-73
2022/08/22 05:10:53;;;;;;;67.10;34.03;;;;;;;21.77;35.66;100119.16;4914570;29;20087;-72
2022/08/22 05:13:28;;;;;;;69.50;36.25;;;;;;;21.93;35.30;100111.19;4914933;29;20626;-72
2022/08/22 05:16:03;;;;;;;72.13;37.40;;;;;;;22.06;35.09;100109.66;4914393;29;20068;-73
2022/08/22 05:18:38;;;;;;;71.97;35.80;;;;;;;22.10;35.28;100116.16;4919220;29;20054;-72
2022/08/22 05:21:09;;;;;;;64.47;33.30;;;;;;;22.07;35.22;100104.78;4933531;29;20060;-73
2022/08/22 05:23:49;;;;;;;68.35;36.88;;;;;;;22.09;35.41;100108.88;4933153;28;20106;-72
2022/08/22 05:26:20;;;;;;;62.53;35.50;;;;;;;22.04;35.52;100097.06;4933421;29;20154;-75
2022/08/22 05:28:56;;;;;;;68.00;36.22;;;;;;;22.04;35.57;100103.56;4933198;29;20108;-75
2022/08/22 05:31:32;;;;;;;64.10;35.72;;;;;;;22.21;35.25;100110.53;4976838;28;20066;-75
2022/08/22 05:34:05;;;;;;;67.68;37.00;;;;;;;22.43;35.09;100101.75;5011339;28;20054;-74
2022/08/22 05:36:54;;;;;;;69.72;34.13;;;;;;;22.75;34.35;100096.22;5012750;28;20065;-75
2022/08/22 05:39:24;;;;;;;71.00;38.87;;;;;;;22.99;34.11;100101.97;5012443;28;20057;-74
2022/08/22 05:41:59;;;;;;;63.08;37.05;;;;;;;23.07;33.78;100100.75;5012983;28;20089;-74
2022/08/22 05:44:33;;;;;;;73.30;37.30;;;;;;;23.13;33.92;100109.69;5012764;28;20092;-74
2022/08/22 05:47:02;;;;;;;65.30;33.47;;;;;;;23.02;34.10;100101.16;5012936;28;20124;-74
2022/08/22 05:49:41;;;;;;;67.38;35.85;;;;;;;22.95;34.28;100118.16;5012786;28;20061;-75
2022/08/22 05:52:23;;;;;;;57.38;35.90;;;;;;;23.12;33.90;100114.53;5012472;28;20066;-75
2022/08/22 05:55:03;;;;;;;68.20;36.53;;;;;;;23.03;34.13;100119.78;5012533;28;20056;-75
2022/08/22 05:57:40;;;;;;;76.90;37.75;;;;;;;23.11;34.17;100118.59;5011591;28;20128;-74
2022/08/22 06:00:11;;;;;;;62.92;34.80;;;;;;;23.70;33.01;100125.56;5012801;28;20057;-75
2022/08/22 06:03:01;;;;;;;65.55;34.17;;;;;;;23.66;33.15;100126.78;5012531;28;20061;-74
2022/08/22 06:05:34;;;;;;;60.75;33.97;;;;;;;23.38;33.68;100118.28;4975309;28;20112;-74
2022/08/22 06:08:24;;;;;;;57.42;32.80;;;;;;;23.34;33.91;100104.06;5011241;28;20062;-75
2022/08/22 06:10:58;;;;;;;56.17;28.98;;;;;;;23.39;33.67;100121.50;5012531;28;20065;-75
2022/08/22 06:13:31;;;;;;;55.55;31.17;;;;;;;23.38;33.90;100114.22;5012606;28;20572;-74
2022/08/22 06:16:34;;;;;;;52.33;31.80;;;;;;;23.31;33.93;100121.91;5012663;28;20100;-74
2022/08/22 06:19:03;;;;;;;69.50;32.53;;;;;;;23.38;33.77;100123.94;5012026;28;20072;-74
2022/08/22 06:21:48;;;;;;;65.30;31.02;;;;;;;23.49;33.56;100119.91;5012515;28;20058;-74
2022/08/22 06:24:25;;;;;;;62.63;31.70;;;;;;;23.69;33.51;100123.13;5012339;28;20108;-76
2022/08/22 06:26:56;;;;;;;56.75;30.10;;;;;;;23.85;33.35;100132.03;5012289;28;20054;-74
2022/08/22 06:29:57;;;;;;;60.50;31.33;;;;;;;24.11;33.20;100132.47;5070156;28;20379;-74
2022/08/22 06:32:28;;;;;;;58.00;30.70;;;;;;;24.33;33.01;100124.66;5069375;28;20088;-74
2022/08/22 06:35:23;;;;;;;56.28;30.58;;;;;;;24.44;32.63;100119.75;5069889;28;20151;-75
2022/08/22 06:37:56;;;;;;;61.42;32.08;;;;;;;24.29;32.81;100123.88;5069328;28;20090;-76
2022/08/22 06:40:26;;;;;;;58.80;30.63;;;;;;;24.09;33.36;100126.38;5069628;28;20048;-74
2022/08/22 06:42:56;;;;;;;52.95;28.63;;;;;;;23.94;33.79;100143.81;5068443;28;20041;-75
2022/08/22 06:45:31;;;;;;;56.83;30.80;;;;;;;23.73;34.11;100138.13;5069662;28;20186;-75
2022/08/22 06:48:03;;;;;;;57.58;29.33;;;;;;;23.57;34.23;100129.22;5069548;28;20045;-75
2022/08/22 06:50:35;;;;;;;50.72;28.65;;;;;;;23.53;34.39;100136.94;5067074;28;20049;-75
2022/08/22 06:53:06;;;;;;;56.17;29.35;;;;;;;23.61;34.26;100149.91;5048115;28;20049;-74
2022/08/22 06:55:36;;;;;;;47.25;27.10;;;;;;;23.85;34.06;100141.38;5064498;28;20052;-75
2022/08/22 06:58:14;;;;;;;51.80;27.38;;;;;;;24.41;33.31;100132.78;5069286;28;20098;-75
2022/08/22 07:00:43;;;;;;;54.63;27.33;;;;;;;24.86;32.35;100137.50;5067766;28;20049;-75
2022/08/22 07:03:38;;;;;;;52.08;26.05;;;;;;;25.25;31.86;100145.81;5069081;28;20053;-69
2022/08/22 07:06:13;;;;;;;50.17;26.08;;;;;;;25.53;31.55;100131.41;5069613;28;20057;-75
2022/08/22 07:08:41;;;;;;;42.78;25.63;;;;;;;25.71;31.28;100132.06;5068941;28;20045;-74
2022/08/22 07:11:20;;;;;;;45.08;25.23;;;;;;;26.00;30.66;100127.75;5068937;28;20088;-74
2022/08/22 07:14:01;;;;;;;59.42;24.33;;;;;;;26.10;30.50;100120.31;5049947;28;20053;-74
2022/08/22 07:16:48;;;;;;;50.72;25.17;;;;;;;26.33;30.21;100129.84;5049020;28;20053;-75
2022/08/22 07:19:36;;;;;;;56.38;25.38;;;;;;;27.34;28.74;100129.78;5048588;28;20095;-75
2022/08/22 07:22:22;;;;;;;44.75;24.23;;;;;;;27.83;28.11;100140.41;5048818;28;20049;-75
2022/08/22 07:25:09;;;;;;;37.65;23.42;;;;;;;28.02;27.57;100136.84;5049384;28;20041;-75
2022/08/22 07:28:07;;;;;;;37.25;22.00;;;;;;;28.86;26.54;100133.59;5047054;28;20115;-74
2022/08/22 07:30:55;;;;;;;41.83;23.80;;;;;;;30.39;24.51;100136.81;5048591;28;20045;-75
2022/08/22 07:33:41;;;;;;;46.60;24.13;;;;;;;30.67;23.80;100141.72;5048618;28;20136;-75
2022/08/22 07:36:22;;;;;;;43.08;24.88;;;;;;;31.50;23.37;100145.41;5048497;28;20049;-75
2022/08/22 07:39:28;;;;;;;44.22;22.65;;;;;;;33.32;21.06;100135.13;5065993;28;20555;-74
2022/08/22 07:42:14;;;;;;;34.03;21.67;;;;;;;35.59;18.66;100131.19;5035396;28;20056;-75
2022/08/22 07:44:44;;;;;;;45.00;27.05;;;;;;;37.20;17.52;100142.94;5049162;28;20053;-75
2022/08/22 07:47:20;;;;;;;41.10;21.00;;;;;;;37.90;16.66;100129.34;5054937;28;20094;-76
2022/08/22 07:50:06;;;;;;;38.20;20.30;;;;;;;38.42;15.93;100131.16;5054657;28;20480;-69
2022/08/22 07:52:44;;;;;;;40.00;22.33;;;;;;;39.21;15.88;100128.66;5053636;28;20103;-69
2022/08/22 07:55:21;;;;;;;;;;;;;;;38.69;16.19;100136.56;5055368;28;20122;-68
2022/08/22 07:57:55;;;;;;;42.27;22.80;;;;;;;37.96;16.46;100138.94;5054855;28;19929;-68
2022/08/22 08:00:23;;;;;;;41.45;23.90;;;;;;;37.15;16.85;100134.09;5054125;28;20056;-68
2022/08/22 08:02:55;;;;;;;;;;;;;;;35.76;18.14;100133.19;5054889;28;20095;-69
2022/08/22 08:05:26;;;;;;;42.75;23.67;;;;;;;35.06;18.70;100143.25;5054759;28;19951;-69
2022/08/22 08:07:55;;;;;;;47.40;26.13;;;;;;;34.32;19.15;100142.06;5054525;28;20049;-69
2022/08/22 08:10:30;;;;;;;43.25;25.27;;;;;;;34.27;19.21;100140.63;5054732;28;20496;-69
2022/08/22 08:13:05;;;;;;;43.03;25.42;;;;;;;35.18;18.79;100132.75;5043202;28;20037;-72
2022/08/22 08:15:36;;;;;;;42.75;24.80;;;;;;;35.52;18.49;100140.22;5035214;28;20508;-73
2022/08/22 08:18:09;;;;;;;43.20;27.00;;;;;;;36.31;17.15;100146.13;5034473;28;20104;-72
2022/08/22 08:20:36;;;;;;;49.63;28.45;;;;;;;36.61;17.17;100135.41;5034564;28;20091;-72
2022/08/22 08:23:08;;;;;;;46.72;27.15;;;;;;;37.98;16.52;100137.13;5034756;28;20115;-72
2022/08/22 08:25:56;;;;;;;41.70;27.63;;;;;;;39.28;15.25;100142.78;5034379;28;20049;-72
2022/08/22 08:28:37;;;;;;;44.28;27.08;;;;;;;41.42;13.72;100136.53;5033839;28;20493;-72
2022/08/22 08:31:09;;;;;;;57.08;26.75;;;;;;;42.85;12.29;100145.03;5034237;28;20535;-72
2022/08/22 08:33:43;;;;;;;46.33;27.25;;;;;;;42.99;12.20;100143.91;5045845;28;20048;-71
2022/08/22 08:36:29;;;;;;;104.75;54.90;;;;;;;44.70;11.01;100139.41;5053492;28;20053;-72
2022/08/22 08:39:02;;;;;;;50.60;27.87;;;;;;;46.93;9.78;100137.91;5054121;28;20048;-72
2022/08/22 08:41:47;;;;;;;46.03;29.65;;;;;;;47.14;9.41;100135.78;5053667;28;20287;-72
2022/08/22 08:44:29;;;;;;;50.42;28.95;;;;;;;45.75;10.33;100134.91;5053865;28;20589;-72
2022/08/22 08:47:02;;;;;;;46.00;29.42;;;;;;;45.74;10.46;100133.28;5054079;28;20102;-72
2022/08/22 08:49:48;;;;;;;52.70;30.35;;;;;;;46.78;10.02;100132.59;5053914;28;20045;-68
2022/08/22 08:52:37;;;;;;;60.33;29.30;;;;;;;47.10;9.67;100138.31;5052581;28;20503;-74
2022/08/22 08:55:18;;;;;;;52.80;30.75;;;;;;;46.52;9.83;100138.50;5053857;28;20049;-76
2022/08/22 08:58:14;;;;;;;51.70;32.47;;;;;;;44.55;10.98;100138.25;5053709;28;20168;-75
2022/08/22 09:00:43;;;;;;;53.03;31.50;;;;;;;44.56;11.07;100134.78;5053971;28;20080;-76
2022/08/22 09:03:36;;;;;;;50.90;30.67;;;;;;;44.62;10.91;100138.47;5033487;28;20408;-69
2022/08/22 09:06:15;;;;;;;47.90;32.60;;;;;;;43.80;11.45;100142.28;5034358;28;20341;-68
2022/08/22 09:09:13;;;;;;;51.63;32.28;;;;;;;42.79;12.18;100135.50;5033578;28;20088;-69
2022/08/22 09:12:11;;;;;;;46.78;23.90;;;;;;;42.27;12.35;100134.59;5032831;28;20099;-70
2022/08/22 09:15:00;;;;;;;50.22;28.83;;;;;;;42.24;12.55;100135.66;5031962;28;20053;-70
2022/08/22 09:17:29;;;;;;;45.63;28.10;;;;;;;41.67;13.11;100137.63;5033501;28;20049;-69
2022/08/22 09:20:33;;;;;;;55.72;29.33;;;;;;;40.56;14.40;100139.47;5033434;28;20524;-70
2022/08/22 09:23:32;;;;;;;41.45;26.40;;;;;;;39.00;15.12;100139.56;5033614;28;20056;-69
2022/08/22 09:26:07;;;;;;;46.88;26.98;;;;;;;37.29;16.38;100142.84;5032402;28;20061;-69
2022/08/22 09:28:55;;;;;;;46.47;23.60;;;;;;;37.24;16.25;100142.75;5032824;28;20089;-68
2022/08/22 09:31:28;;;;;;;;;;;;;;;38.05;15.90;100135.91;5033933;28;20054;-69
2022/08/22 09:34:46;;;;;;;49.75;22.70;;;;;;;40.09;13.78;100146.09;5033679;28;19956;-69
2022/08/22 09:37:25;;;;;;;44.38;23.15;;;;;;;40.59;13.62;100138.41;5032028;28;20103;-69
2022/08/22 09:40:24;;;;;;;37.28;24.25;;;;;;;40.48;13.57;100142.09;5033096;28;20081;-70
2022/08/22 09:43:07;;;;;;;43.08;24.90;;;;;;;38.55;15.30;100149.06;5032854;28;20054;-69
2022/08/22 09:45:39;;;;;;;42.75;24.00;;;;;;;36.69;16.86;100136.63;5033072;28;20045;-69
2022/08/22 09:48:22;;;;;;;47.88;24.33;;;;;;;35.47;17.69;100144.59;5032936;28;20045;-68
2022/08/22 09:51:09;;;;;;;50.17;25.48;;;;;;;34.50;19.24;100147.91;5033087;28;20118;-70
2022/08/22 09:54:20;;;;;;;42.85;26.92;;;;;;;33.69;19.94;100141.91;5031248;28;20046;-68
2022/08/22 09:56:57;;;;;;;49.25;27.88;;;;;;;33.22;20.54;100137.16;5032795;28;20140;-70
2022/08/22 09:59:32;;;;;;;47.63;27.60;;;;;;;32.95;21.20;100128.34;5033320;28;20517;-70
2022/08/22 10:02:18;;;;;;;50.13;25.10;;;;;;;32.73;21.54;100130.41;5040817;28;20435;-68
2022/08/22 10:04:57;;;;;;;46.65;24.75;;;;;;;32.38;21.87;100128.03;5052113;28;20114;-69
2022/08/22 10:07:26;;;;;;;41.38;24.17;;;;;;;32.17;22.16;100135.31;5052238;28;20059;-68
2022/08/22 10:10:08;;;;;;;45.20;22.20;;;;;;;31.86;22.37;100137.25;5053071;28;20091;-68
2022/08/22 10:12:43;;;;;;;46.72;22.45;;;;;;;31.66;22.62;100130.91;5052232;28;20056;-69
2022/08/22 10:15:51;;;;;;;34.58;19.63;;;;;;;31.53;23.01;100141.63;5052452;28;20107;-69
2022/08/22 10:18:49;;;;;;;20.07;10.33;;;;;;;31.14;22.35;100130.53;5033884;28;20417;-68
2022/08/22 10:21:41;;;;;;;14.52;7.25;;;;;;;30.79;22.99;100143.88;5050023;28;20291;-69
2022/08/22 10:24:54;;;;;;;19.88;7.80;;;;;;;30.77;22.79;100145.59;5051749;28;20067;-68
2022/08/22 10:27:39;;;;;;;16.90;7.28;;;;;;;30.58;22.91;100138.72;5038938;28;20067;-70
2022/08/22 10:30:13;;;;;;;21.42;9.57;;;;;;;30.45;23.13;100128.44;5052352;28;20087;-69
2022/08/22 10:33:09;;;;;;;24.17;9.40;;;;;;;30.39;23.65;100141.72;5042543;28;20568;-68
2022/08/22 10:35:50;;;;;;;21.00;9.48;;;;;;;30.16;23.61;100137.00;5032736;28;20107;-68
2022/08/22 10:38:42;;;;;;;35.55;8.85;;;;;;;30.15;23.98;100132.50;5035465;28;20132;-69
2022/08/22 10:41:27;;;;;;;21.27;8.30;;;;;;;30.11;23.45;100134.69;5043909;28;20416;-69
2022/08/22 10:44:20;;;;;;;24.33;8.68;;;;;;;30.20;23.59;100139.81;5041892;28;20055;-68
2022/08/22 10:47:04;;;;;;;15.45;7.43;;;;;;;30.08;23.31;100136.38;5031166;28;20049;-68
2022/08/22 10:49:34;;;;;;;16.25;7.05;;;;;;;30.00;23.77;100132.09;5032852;28;20042;-67
2022/08/22 10:52:07;;;;;;;18.17;7.90;;;;;;;29.99;23.70;100124.72;5031877;28;20072;-68
2022/08/22 10:54:56;;;;;;;15.57;8.10;;;;;;;30.04;24.05;100131.97;5032138;28;20053;-69
2022/08/22 10:57:35;;;;;;;17.92;7.28;;;;;;;30.08;24.11;100122.03;5032052;28;20068;-69
2022/08/22 11:00:26;;;;;;;16.40;7.78;;;;;;;30.06;24.61;100118.00;5031577;28;20072;-71
2022/08/22 11:03:30;;;;;;;16.63;8.05;;;;;;;29.98;24.39;100123.13;5031878;28;20046;-74
2022/08/22 11:06:02;;;;;;;20.75;7.18;;;;;;;29.99;24.52;100121.84;5031943;28;20045;-70
2022/08/22 11:08:32;;;;;;;14.57;6.63;;;;;;;29.93;24.24;100109.31;5031760;28;20111;-71
2022/08/22 11:11:08;;;;;;;15.13;5.40;;;;;;;29.98;24.52;100117.38;5032730;28;20096;-71
2022/08/22 11:13:49;;;;;;;13.77;4.38;;;;;;;30.00;23.94;100134.16;5031839;28;20084;-70
2022/08/22 11:16:47;;;;;;;12.88;4.68;;;;;;;29.86;24.24;100123.03;5035437;28;20084;-71
2022/08/22 11:19:37;;;;;;;15.57;3.78;;;;;;;29.81;23.88;100112.91;5036352;28;20053;-73
2022/08/22 11:22:20;;;;;;;13.95;3.10;;;;;;;29.89;23.74;100113.53;5035412;28;20059;-72
2022/08/22 11:25:12;;;;;;;14.85;3.53;;;;;;;29.88;23.65;100121.34;5040711;28;20044;-72
2022/08/22 11:27:55;;;;;;;20.70;4.18;;;;;;;29.77;23.82;100111.38;5055028;28;20061;-73
2022/08/22 11:30:39;;;;;;;11.88;4.00;;;;;;;29.73;23.92;100111.50;5055302;28;20095;-72
2022/08/22 11:33:27;;;;;;;9.13;3.35;;;;;;;29.87;24.17;100096.75;5048696;28;20056;-72
2022/08/22 11:36:35;;;;;;;11.50;4.75;;;;;;;30.10;23.99;100102.28;5032630;28;20530;-71
2022/08/22 11:39:20;;;;;;;12.80;3.55;;;;;;;30.11;23.99;100101.03;5035095;28;20056;-72
2022/08/22 11:41:50;;;;;;;10.52;3.30;;;;;;;30.10;23.62;100096.56;5035337;28;20413;-72
2022/08/22 11:44:30;;;;;;;17.48;3.28;;;;;;;30.02;23.69;100100.88;5034523;28;20140;-72
2022/08/22 11:47:06;;;;;;;12.88;3.78;;;;;;;29.88;23.22;100107.00;5033505;28;20057;-73
2022/08/22 11:49:39;;;;;;;10.32;3.15;;;;;;;29.81;23.61;100107.16;5035047;28;20042;-72
2022/08/22 11:52:19;;;;;;;7.38;2.67;;;;;;;29.81;23.82;100101.44;5051650;28;20449;-71
2022/08/22 11:55:01;;;;;;;17.13;2.73;;;;;;;29.81;23.89;100101.44;5055174;28;20110;-70
2022/08/22 11:57:31;;;;;;;6.95;3.35;;;;;;;29.72;23.79;100091.88;5055513;28;20492;-72
2022/08/22 12:00:37;;;;;;;10.73;2.33;;;;;;;29.61;23.93;100102.75;5053509;28;20041;-72
2022/08/22 12:03:25;;;;;;;11.57;2.10;;;;;;;29.49;24.13;100107.13;5054570;28;20504;-71
2022/08/22 12:06:21;;;;;;;11.00;2.72;;;;;;;29.47;23.45;100103.09;5054502;28;20045;-72
2022/08/22 12:09:07;;;;;;;9.20;2.38;;;;;;;29.42;23.80;100100.75;5054761;28;20084;-72
2022/08/22 12:11:47;;;;;;;6.18;2.42;;;;;;;29.40;23.39;100104.06;5054821;28;20446;-72
2022/08/22 12:14:17;;;;;;;13.98;2.35;;;;;;;29.35;23.47;100098.91;5054429;28;20471;-74
2022/08/22 12:17:11;;;;;;;17.50;4.13;;;;;;;29.36;23.36;100109.09;5055016;28;20056;-70
2022/08/22 12:20:06;;;;;;;12.68;3.00;;;;;;;29.37;23.66;100087.78;5054672;28;20448;-71
2022/08/22 12:22:49;;;;;;;9.15;2.70;;;;;;;29.46;23.74;100090.03;5046781;28;20052;-74
2022/08/22 12:25:36;;;;;;;14.13;2.42;;;;;;;29.49;23.44;100100.59;5034411;28;20045;-73